Monte — V2FS2 — position and weather

sailwx.info

Track history (hours):
 
Tides and Currents Weather Stations Pressure Air Temp Water Temp Dewpoint Dewpoint Depression Visibility Wind Speed Wind Dir Waves Ship Positions

Monte

Last reported at 2016-Aug-28 09:33 UTC. Time now 2016-Aug-28 10:21 UTC.
Position N 53°57' E 009°13'.

Length 104 m; draft 6 m.

Type: Ship (hazmat cat A). MMSI: 305777000.

Date/timePositionNaut miles runAvg speedWind from/ knotsBaromVisibWave heightAir tempDewpointWater temp
2016-Aug-28 09:33N 53°57' E 009°13'8 8.1
2016-Aug-28 08:33N 54°04' E 009°19'38 5.4
2016-Aug-28 01:34N 54°25' E 010°13'9 8.8
2016-Aug-28 00:33N 54°31' E 010°23'1110.6
2016-Aug-27 23:34N 54°35' E 010°41'1010.1
2016-Aug-27 22:33N 54°36' E 010°58'1010.3
2016-Aug-27 21:34N 54°35' E 011°16'1110.7
2016-Aug-27 20:33N 54°31' E 011°33'10 9.6
2016-Aug-27 19:34N 54°27' E 011°48'9 9.4
2016-Aug-27 18:34N 54°27' E 012°04'9 8.9
2016-Aug-27 17:33N 54°34' E 012°13'10 9.9
2016-Aug-27 16:33N 54°41' E 012°25'1010.0
2016-Aug-27 15:33N 54°47' E 012°39'10 9.9
2016-Aug-27 14:33N 54°51' E 012°55'10 9.9
2016-Aug-27 13:33N 54°54' E 013°11'1010.2
2016-Aug-27 12:33N 54°58' E 013°28'1110.4
2016-Aug-27 11:29N 55°01' E 013°46'1010.5
2016-Aug-27 10:33N 55°05' E 014°02'10 9.9
2016-Aug-27 09:33N 55°12' E 014°14'1010.1
2016-Aug-27 08:33N 55°20' E 014°24'1010.0
2016-Aug-27 07:33N 55°28' E 014°36'1010.0
2016-Aug-27 06:33N 55°33' E 014°51'2010.0
2016-Aug-27 04:33N 55°43' E 015°22'2210.1
2016-Aug-27 02:23N 55°53' E 015°56'285 9.3
2016-Aug-25 19:33N 59°21' E 022°02'10 9.5
2016-Aug-25 18:32N 59°27' E 022°17'11 9.5
2016-Aug-25 17:21N 59°33' E 022°35'11 9.6
2016-Aug-25 16:12N 59°36' E 022°56'6 9.6
2016-Aug-25 15:33N 59°38' E 023°08'10 9.6
2016-Aug-25 14:34N 59°40' E 023°26'10 9.6
2016-Aug-25 13:34N 59°43' E 023°45'10 9.7
2016-Aug-25 12:33N 59°45' E 024°04'21 9.3
2016-Aug-25 10:16N 59°50' E 024°44'17 9.8
2016-Aug-25 08:32N 59°53' E 025°18'9 9.8
2016-Aug-25 07:34N 59°55' E 025°36'1010.0
2016-Aug-25 06:34N 59°57' E 025°56'2010.1
2016-Aug-25 04:32N 60°02' E 026°35'59 9.4
2016-Aug-24 22:17N 60°03' E 028°33'3010.1
2016-Aug-24 19:17N 60°01' E 029°33'710.0
2016-Aug-24 18:33N 59°58' E 029°47'1010.0
2016-Aug-24 17:33N 59°54' E 030°05'4 4.3
2016-Aug-24 16:31N 59°53' E 030°14'0 0.0
2016-Aug-24 15:31N 59°53' E 030°14'0 0.0
2016-Aug-24 14:31N 59°53' E 030°14'0 0.0
2016-Aug-24 13:28N 59°53' E 030°14'0 0.0
2016-Aug-24 12:19N 59°53' E 030°14'0 0.0
2016-Aug-24 11:31N 59°53' E 030°14'0 0.0
2016-Aug-24 10:16N 59°53' E 030°14'0 0.0
2016-Aug-24 09:22N 59°53' E 030°14'0 0.0
2016-Aug-24 08:28N 59°53' E 030°14'0 0.0
2016-Aug-24 07:31N 59°53' E 030°14'0 0.0
2016-Aug-24 06:28N 59°53' E 030°14'0 0.0
2016-Aug-24 04:31N 59°53' E 030°13'0 0.0
2016-Aug-24 03:31N 59°53' E 030°14'0 0.0
2016-Aug-24 02:31N 59°53' E 030°14'0 0.0
2016-Aug-24 01:31N 59°53' E 030°14'0 0.0
2016-Aug-24 00:28N 59°53' E 030°13'0 0.0
2016-Aug-23 23:34N 59°53' E 030°13'0 0.0
2016-Aug-23 22:33N 59°53' E 030°14'0 0.0
2016-Aug-23 21:33N 59°53' E 030°13'0 0.0
2016-Aug-23 20:33N 59°53' E 030°13'0 0.0
2016-Aug-23 19:30N 59°53' E 030°14'0 0.0
2016-Aug-23 18:33N 59°53' E 030°14'0 0.0
2016-Aug-23 17:33N 59°53' E 030°14'0 0.0
2016-Aug-23 16:33N 59°53' E 030°14'0 0.0
2016-Aug-23 15:30N 59°53' E 030°14'0 0.0
2016-Aug-23 14:30N 59°53' E 030°14'0 0.0
2016-Aug-23 13:33N 59°53' E 030°14'0 0.0
2016-Aug-23 12:24N 59°53' E 030°14'0 0.0
2016-Aug-23 11:33N 59°53' E 030°14'0 0.0
2016-Aug-23 10:27N 59°53' E 030°14'0 0.0
2016-Aug-23 09:19N 59°53' E 030°14'0 0.0
2016-Aug-23 08:12N 59°53' E 030°14'0 0.0
2016-Aug-23 07:27N 59°53' E 030°14'0 0.0
2016-Aug-23 06:33N 59°53' E 030°14'0 0.0
2016-Aug-23 05:30N 59°53' E 030°14'0 0.0
2016-Aug-23 04:33N 59°53' E 030°14'0 0.2
2016-Aug-23 03:33N 59°53' E 030°14'0 0.0
2016-Aug-23 02:33N 59°53' E 030°14'0 0.0
2016-Aug-23 01:33N 59°53' E 030°14'0 0.0
2016-Aug-23 00:33N 59°53' E 030°14'0 0.0
2016-Aug-22 23:33N 59°53' E 030°14'0 0.0
2016-Aug-22 22:33N 59°53' E 030°14'0 0.0
2016-Aug-22 21:33N 59°53' E 030°14'0 0.0
2016-Aug-22 20:33N 59°53' E 030°14'0 0.0
2016-Aug-22 19:33N 59°53' E 030°14'0 0.0
2016-Aug-22 18:33N 59°53' E 030°14'0 0.0
2016-Aug-22 17:27N 59°53' E 030°14'0 0.0
2016-Aug-22 16:33N 59°53' E 030°14'0 0.0
2016-Aug-22 15:24N 59°53' E 030°14'0 0.0
2016-Aug-22 14:24N 59°53' E 030°14'0 0.0
2016-Aug-22 13:30N 59°53' E 030°14'0 0.0
2016-Aug-22 11:33N 59°53' E 030°14'0 0.0
2016-Aug-22 10:33N 59°53' E 030°14'0 0.0
2016-Aug-22 09:33N 59°53' E 030°14'0 0.0
2016-Aug-22 08:30N 59°53' E 030°14'0 0.0
2016-Aug-22 07:33N 59°53' E 030°14'0 0.0
2016-Aug-22 06:27N 59°53' E 030°14'0 0.0
2016-Aug-22 05:30N 59°53' E 030°14'0 0.0
2016-Aug-22 04:11N 59°53' E 030°14'2 2.9
2016-Aug-22 03:33N 59°53' E 030°10'10 9.2
2016-Aug-22 02:28N 59°57' E 029°52'1210.7
2016-Aug-22 01:19N 60°01' E 029°29'3 3.6
2016-Aug-22 00:33N 60°01' E 029°24'0 0.5
2016-Aug-21 23:33N 60°01' E 029°23'0 0.0
2016-Aug-21 22:30N 60°01' E 029°23'0 0.0
2016-Aug-21 21:20N 60°01' E 029°23'2 2.3
2016-Aug-21 20:33N 60°01' E 029°19'1110.6
2016-Aug-21 19:34N 60°02' E 028°58'1110.8
2016-Aug-21 18:33N 60°02' E 028°36'1010.2
2016-Aug-21 17:33N 60°06' E 028°17'1110.6
2016-Aug-21 16:33N 60°09' E 027°57'1010.4
2016-Aug-21 15:33N 60°07' E 027°37'1111.2
2016-Aug-21 14:33N 60°02' E 027°17'1510.2
2016-Aug-21 13:04N 59°59' E 026°48'1010.7
2016-Aug-21 12:09N 59°58' E 026°28'4111.1
2016-Aug-21 08:28N 59°47' E 025°09'1011.2
2016-Aug-21 07:33N 59°45' E 024°49'1110.6
2016-Aug-21 06:33N 59°43' E 024°29'1110.8
2016-Aug-21 05:32N 59°40' E 024°08'1511.4
2016-Aug-21 04:15N 59°35' E 023°40'811.4
2016-Aug-21 03:33N 59°32' E 023°25'1211.5
2016-Aug-21 02:33N 59°29' E 023°04'32710.9
2016-Aug-19 20:33N 55°42' E 015°44'1111.1
2016-Aug-19 19:33N 55°37' E 015°27'1111.4
2016-Aug-19 18:33N 55°32' E 015°09'1111.5
2016-Aug-19 17:33N 55°26' E 014°51'1110.9
2016-Aug-19 16:33N 55°20' E 014°35'1111.0
2016-Aug-19 15:34N 55°12' E 014°23'1110.6
2016-Aug-19 14:33N 55°09' E 014°05'3511.1
2016-Aug-19 11:23N 55°14' E 013°04'1310.6
2016-Aug-19 10:10N 55°16' E 012°42'5 8.8
2016-Aug-19 09:33N 55°21' E 012°39'1010.5
2016-Aug-19 08:33N 55°32' E 012°42'1010.0
2016-Aug-19 07:33N 55°42' E 012°41'1010.3
2016-Aug-19 06:33N 55°52' E 012°39'1010.3
2016-Aug-19 05:33N 56°02' E 012°38'9 8.8
2016-Aug-19 04:33N 56°08' E 012°27'1111.0
2016-Aug-19 03:33N 56°15' E 012°11'3110.4
2016-Aug-19 00:33N 56°44' E 011°51'1010.4
2016-Aug-18 23:33N 56°54' E 011°46'1110.7
2016-Aug-18 22:33N 57°04' E 011°40'1110.7
2016-Aug-18 21:33N 57°14' E 011°32'1111.2
2016-Aug-18 20:34N 57°25' E 011°26'1010.2
2016-Aug-18 19:33N 57°32' E 011°12'1110.8
2016-Aug-18 18:33N 57°37' E 010°55'1010.5
2016-Aug-18 17:33N 57°42' E 010°38'1 1.1
2016-Aug-18 16:33N 57°42' E 010°36'6 4.2
2016-Aug-18 15:08N 57°47' E 010°42'  
Track history (hours):
 
Tides and Currents Weather Stations Pressure Air Temp Water Temp Dewpoint Dewpoint Depression Visibility Wind Speed Wind Dir Waves Ship Positions

Monte

Last reported at 2016-Aug-28 09:33 UTC. Time now 2016-Aug-28 10:21 UTC.
Position N 53°57' E 009°13'.

Length 104 m; draft 6 m.

Type: Ship (hazmat cat A). MMSI: 305777000.

Date/timePositionNaut miles runAvg speedWind from/ knotsBaromVisibWave heightAir tempDewpointWater temp
2016-Aug-28 09:33N 53°57' E 009°13'8 8.1
2016-Aug-28 08:33N 54°04' E 009°19'38 5.4
2016-Aug-28 01:34N 54°25' E 010°13'9 8.8
2016-Aug-28 00:33N 54°31' E 010°23'1110.6
2016-Aug-27 23:34N 54°35' E 010°41'1010.1
2016-Aug-27 22:33N 54°36' E 010°58'1010.3
2016-Aug-27 21:34N 54°35' E 011°16'1110.7
2016-Aug-27 20:33N 54°31' E 011°33'10 9.6
2016-Aug-27 19:34N 54°27' E 011°48'9 9.4
2016-Aug-27 18:34N 54°27' E 012°04'9 8.9
2016-Aug-27 17:33N 54°34' E 012°13'10 9.9
2016-Aug-27 16:33N 54°41' E 012°25'1010.0
2016-Aug-27 15:33N 54°47' E 012°39'10 9.9
2016-Aug-27 14:33N 54°51' E 012°55'10 9.9
2016-Aug-27 13:33N 54°54' E 013°11'1010.2
2016-Aug-27 12:33N 54°58' E 013°28'1110.4
2016-Aug-27 11:29N 55°01' E 013°46'1010.5
2016-Aug-27 10:33N 55°05' E 014°02'10 9.9
2016-Aug-27 09:33N 55°12' E 014°14'1010.1
2016-Aug-27 08:33N 55°20' E 014°24'1010.0
2016-Aug-27 07:33N 55°28' E 014°36'1010.0
2016-Aug-27 06:33N 55°33' E 014°51'2010.0
2016-Aug-27 04:33N 55°43' E 015°22'2210.1
2016-Aug-27 02:23N 55°53' E 015°56'285 9.3
2016-Aug-25 19:33N 59°21' E 022°02'10 9.5
2016-Aug-25 18:32N 59°27' E 022°17'11 9.5
2016-Aug-25 17:21N 59°33' E 022°35'11 9.6
2016-Aug-25 16:12N 59°36' E 022°56'6 9.6
2016-Aug-25 15:33N 59°38' E 023°08'10 9.6
2016-Aug-25 14:34N 59°40' E 023°26'10 9.6
2016-Aug-25 13:34N 59°43' E 023°45'10 9.7
2016-Aug-25 12:33N 59°45' E 024°04'21 9.3
2016-Aug-25 10:16N 59°50' E 024°44'17 9.8
2016-Aug-25 08:32N 59°53' E 025°18'9 9.8
2016-Aug-25 07:34N 59°55' E 025°36'1010.0
2016-Aug-25 06:34N 59°57' E 025°56'2010.1
2016-Aug-25 04:32N 60°02' E 026°35'59 9.4
2016-Aug-24 22:17N 60°03' E 028°33'3010.1
2016-Aug-24 19:17N 60°01' E 029°33'710.0
2016-Aug-24 18:33N 59°58' E 029°47'1010.0
2016-Aug-24 17:33N 59°54' E 030°05'4 4.3
2016-Aug-24 16:31N 59°53' E 030°14'0 0.0
2016-Aug-24 15:31N 59°53' E 030°14'0 0.0
2016-Aug-24 14:31N 59°53' E 030°14'0 0.0
2016-Aug-24 13:28N 59°53' E 030°14'0 0.0
2016-Aug-24 12:19N 59°53' E 030°14'0 0.0
2016-Aug-24 11:31N 59°53' E 030°14'0 0.0
2016-Aug-24 10:16N 59°53' E 030°14'0 0.0
2016-Aug-24 09:22N 59°53' E 030°14'0 0.0
2016-Aug-24 08:28N 59°53' E 030°14'0 0.0
2016-Aug-24 07:31N 59°53' E 030°14'0 0.0
2016-Aug-24 06:28N 59°53' E 030°14'0 0.0
2016-Aug-24 04:31N 59°53' E 030°13'0 0.0
2016-Aug-24 03:31N 59°53' E 030°14'0 0.0
2016-Aug-24 02:31N 59°53' E 030°14'0 0.0
2016-Aug-24 01:31N 59°53' E 030°14'0 0.0
2016-Aug-24 00:28N 59°53' E 030°13'0 0.0
2016-Aug-23 23:34N 59°53' E 030°13'0 0.0
2016-Aug-23 22:33N 59°53' E 030°14'0 0.0
2016-Aug-23 21:33N 59°53' E 030°13'0 0.0
2016-Aug-23 20:33N 59°53' E 030°13'0 0.0
2016-Aug-23 19:30N 59°53' E 030°14'0 0.0
2016-Aug-23 18:33N 59°53' E 030°14'0 0.0
2016-Aug-23 17:33N 59°53' E 030°14'0 0.0
2016-Aug-23 16:33N 59°53' E 030°14'0 0.0
2016-Aug-23 15:30N 59°53' E 030°14'0 0.0
2016-Aug-23 14:30N 59°53' E 030°14'0 0.0
2016-Aug-23 13:33N 59°53' E 030°14'0 0.0
2016-Aug-23 12:24N 59°53' E 030°14'0 0.0
2016-Aug-23 11:33N 59°53' E 030°14'0 0.0
2016-Aug-23 10:27N 59°53' E 030°14'0 0.0
2016-Aug-23 09:19N 59°53' E 030°14'0 0.0
2016-Aug-23 08:12N 59°53' E 030°14'0 0.0
2016-Aug-23 07:27N 59°53' E 030°14'0 0.0
2016-Aug-23 06:33N 59°53' E 030°14'0 0.0
2016-Aug-23 05:30N 59°53' E 030°14'0 0.0
2016-Aug-23 04:33N 59°53' E 030°14'0 0.2
2016-Aug-23 03:33N 59°53' E 030°14'0 0.0
2016-Aug-23 02:33N 59°53' E 030°14'0 0.0
2016-Aug-23 01:33N 59°53' E 030°14'0 0.0
2016-Aug-23 00:33N 59°53' E 030°14'0 0.0
2016-Aug-22 23:33N 59°53' E 030°14'0 0.0
2016-Aug-22 22:33N 59°53' E 030°14'0 0.0
2016-Aug-22 21:33N 59°53' E 030°14'0 0.0
2016-Aug-22 20:33N 59°53' E 030°14'0 0.0
2016-Aug-22 19:33N 59°53' E 030°14'0 0.0
2016-Aug-22 18:33N 59°53' E 030°14'0 0.0
2016-Aug-22 17:27N 59°53' E 030°14'0 0.0
2016-Aug-22 16:33N 59°53' E 030°14'0 0.0
2016-Aug-22 15:24N 59°53' E 030°14'0 0.0
2016-Aug-22 14:24N 59°53' E 030°14'0 0.0
2016-Aug-22 13:30N 59°53' E 030°14'0 0.0
2016-Aug-22 11:33N 59°53' E 030°14'0 0.0
2016-Aug-22 10:33N 59°53' E 030°14'0 0.0
2016-Aug-22 09:33N 59°53' E 030°14'0 0.0
2016-Aug-22 08:30N 59°53' E 030°14'0 0.0
2016-Aug-22 07:33N 59°53' E 030°14'0 0.0
2016-Aug-22 06:27N 59°53' E 030°14'0 0.0
2016-Aug-22 05:30N 59°53' E 030°14'0 0.0
2016-Aug-22 04:11N 59°53' E 030°14'2 2.9
2016-Aug-22 03:33N 59°53' E 030°10'10 9.2
2016-Aug-22 02:28N 59°57' E 029°52'1210.7
2016-Aug-22 01:19N 60°01' E 029°29'3 3.6
2016-Aug-22 00:33N 60°01' E 029°24'0 0.5
2016-Aug-21 23:33N 60°01' E 029°23'0 0.0
2016-Aug-21 22:30N 60°01' E 029°23'0 0.0
2016-Aug-21 21:20N 60°01' E 029°23'2 2.3
2016-Aug-21 20:33N 60°01' E 029°19'1110.6
2016-Aug-21 19:34N 60°02' E 028°58'1110.8
2016-Aug-21 18:33N 60°02' E 028°36'1010.2
2016-Aug-21 17:33N 60°06' E 028°17'1110.6
2016-Aug-21 16:33N 60°09' E 027°57'1010.4
2016-Aug-21 15:33N 60°07' E 027°37'1111.2
2016-Aug-21 14:33N 60°02' E 027°17'1510.2
2016-Aug-21 13:04N 59°59' E 026°48'1010.7
2016-Aug-21 12:09N 59°58' E 026°28'4111.1
2016-Aug-21 08:28N 59°47' E 025°09'1011.2
2016-Aug-21 07:33N 59°45' E 024°49'1110.6
2016-Aug-21 06:33N 59°43' E 024°29'1110.8
2016-Aug-21 05:32N 59°40' E 024°08'1511.4
2016-Aug-21 04:15N 59°35' E 023°40'811.4
2016-Aug-21 03:33N 59°32' E 023°25'1211.5
2016-Aug-21 02:33N 59°29' E 023°04'32710.9
2016-Aug-19 20:33N 55°42' E 015°44'1111.1
2016-Aug-19 19:33N 55°37' E 015°27'1111.4
2016-Aug-19 18:33N 55°32' E 015°09'1111.5
2016-Aug-19 17:33N 55°26' E 014°51'1110.9
2016-Aug-19 16:33N 55°20' E 014°35'1111.0
2016-Aug-19 15:34N 55°12' E 014°23'1110.6
2016-Aug-19 14:33N 55°09' E 014°05'3511.1
2016-Aug-19 11:23N 55°14' E 013°04'1310.6
2016-Aug-19 10:10N 55°16' E 012°42'5 8.8
2016-Aug-19 09:33N 55°21' E 012°39'1010.5
2016-Aug-19 08:33N 55°32' E 012°42'1010.0
2016-Aug-19 07:33N 55°42' E 012°41'1010.3
2016-Aug-19 06:33N 55°52' E 012°39'1010.3
2016-Aug-19 05:33N 56°02' E 012°38'9 8.8
2016-Aug-19 04:33N 56°08' E 012°27'1111.0
2016-Aug-19 03:33N 56°15' E 012°11'3110.4
2016-Aug-19 00:33N 56°44' E 011°51'1010.4
2016-Aug-18 23:33N 56°54' E 011°46'1110.7
2016-Aug-18 22:33N 57°04' E 011°40'1110.7
2016-Aug-18 21:33N 57°14' E 011°32'1111.2
2016-Aug-18 20:34N 57°25' E 011°26'1010.2
2016-Aug-18 19:33N 57°32' E 011°12'1110.8
2016-Aug-18 18:33N 57°37' E 010°55'1010.5
2016-Aug-18 17:33N 57°42' E 010°38'1 1.1
2016-Aug-18 16:33N 57°42' E 010°36'6 4.2
2016-Aug-18 15:08N 57°47' E 010°42'  

Dump ship's entire track history